createdAt,value
2023-04-28T00:00:46.029Z,66.60
2023-04-28T00:01:46.026Z,66.49
2023-04-28T00:02:46.098Z,66.49
2023-04-28T00:03:46.131Z,66.91
2023-04-28T00:04:46.236Z,66.91
2023-04-28T00:05:46.069Z,66.91
2023-04-28T00:06:45.958Z,66.80
2023-04-28T00:07:45.952Z,66.91
2023-04-28T00:08:45.968Z,67.21
2023-04-28T00:09:45.994Z,66.91
2023-04-28T00:10:45.926Z,66.91
2023-04-28T00:11:45.928Z,66.91
2023-04-28T00:12:46.057Z,67.00
2023-04-28T00:13:45.947Z,67.21
2023-04-28T00:14:45.918Z,67.42
2023-04-28T00:15:45.876Z,67.55
2023-04-28T00:16:46.536Z,67.76
2023-04-28T00:17:46.134Z,68.17
2023-04-28T00:18:45.846Z,68.59
2023-04-28T00:19:45.838Z,68.69
2023-04-28T00:20:46.048Z,68.35
2023-04-28T00:21:45.938Z,68.38
2023-04-28T00:22:45.825Z,68.27
2023-04-28T00:23:45.816Z,68.48
2023-04-28T00:24:45.799Z,68.48
2023-04-28T00:25:45.783Z,68.59
2023-04-28T00:26:45.776Z,68.90
2023-04-28T00:27:45.796Z,69.24
2023-04-28T00:28:45.735Z,69.54
2023-04-28T00:29:45.721Z,69.96
2023-04-28T00:30:45.841Z,70.17
2023-04-28T00:31:45.791Z,70.47
2023-04-28T00:32:45.704Z,70.57
2023-04-28T00:33:45.737Z,70.47
2023-04-28T00:34:45.705Z,70.47
2023-04-28T00:35:45.659Z,70.47
2023-04-28T00:36:45.669Z,70.17
2023-04-28T00:37:45.680Z,70.40
2023-04-28T00:38:45.668Z,70.61
2023-04-28T00:39:45.626Z,70.51
2023-04-28T00:40:45.607Z,70.51
2023-04-28T00:41:45.592Z,70.51
2023-04-28T00:42:45.757Z,70.51
2023-04-28T00:43:45.610Z,70.72
2023-04-28T00:44:45.559Z,70.92
2023-04-28T00:45:45.662Z,70.92
2023-04-28T00:46:45.564Z,70.92
2023-04-28T00:47:45.576Z,70.82
2023-04-28T00:48:45.565Z,70.92
2023-04-28T00:49:45.550Z,70.82
2023-04-28T00:50:45.581Z,70.92
2023-04-28T00:51:45.516Z,71.02
2023-04-28T00:52:45.532Z,71.12
2023-04-28T00:53:45.494Z,71.44
2023-04-28T00:54:45.462Z,71.44
2023-04-28T00:55:45.473Z,71.33
2023-04-28T00:56:45.463Z,71.44
2023-04-28T00:57:45.487Z,71.54
2023-04-28T00:58:45.409Z,71.54
2023-04-28T00:59:45.453Z,71.44
2023-04-28T01:00:45.465Z,71.44
2023-04-28T01:01:45.500Z,71.33
2023-04-28T01:02:45.505Z,71.12
2023-04-28T01:03:45.657Z,71.44
2023-04-28T01:04:45.381Z,71.44
2023-04-28T01:05:45.338Z,71.54
2023-04-28T01:06:45.355Z,71.75
2023-04-28T01:07:45.366Z,71.95
2023-04-28T01:08:45.326Z,72.06
2023-04-28T01:09:45.294Z,72.26
2023-04-28T01:10:45.320Z,72.36
2023-04-28T01:11:45.348Z,72.36
2023-04-28T01:12:45.314Z,72.26
2023-04-28T01:13:45.309Z,72.40
2023-04-28T01:14:45.249Z,72.40
2023-04-28T01:15:45.250Z,72.40
2023-04-28T01:16:45.322Z,72.40
2023-04-28T01:17:45.301Z,72.40
2023-04-28T01:18:45.231Z,72.30
2023-04-28T01:19:45.205Z,72.40
2023-04-28T01:20:45.247Z,72.81
2023-04-28T01:21:45.186Z,73.22
2023-04-28T01:22:45.189Z,73.43
2023-04-28T01:23:45.202Z,73.74
2023-04-28T01:24:45.217Z,74.05
2023-04-28T01:25:45.181Z,74.15
2023-04-28T01:26:45.143Z,74.57
2023-04-28T01:27:45.123Z,74.77
2023-04-28T01:28:45.114Z,75.12
2023-04-28T01:29:45.119Z,75.32
2023-04-28T01:30:45.119Z,75.53
2023-04-28T01:31:45.102Z,75.63
2023-04-28T01:32:45.113Z,75.84
2023-04-28T01:33:45.035Z,76.05
2023-04-28T01:34:45.061Z,76.15
2023-04-28T01:35:45.030Z,76.15
2023-04-28T01:36:45.027Z,76.18
2023-04-28T01:37:45.136Z,76.15
2023-04-28T01:38:44.986Z,76.05
2023-04-28T01:39:44.984Z,76.09
2023-04-28T01:40:44.965Z,76.18
2023-04-28T01:41:45.036Z,76.29
2023-04-28T01:42:45.066Z,76.18
2023-04-28T01:43:45.018Z,76.29
2023-04-28T01:44:44.960Z,76.39
2023-04-28T01:45:44.997Z,76.09
2023-04-28T01:46:44.953Z,76.39
2023-04-28T01:47:44.923Z,76.70
2023-04-28T01:48:44.889Z,76.81
2023-04-28T01:49:44.898Z,76.91
2023-04-28T01:50:44.888Z,76.91
2023-04-28T01:51:44.905Z,77.12
2023-04-28T01:52:44.868Z,77.12
2023-04-28T01:53:44.846Z,77.01
2023-04-28T01:54:44.884Z,77.12
2023-04-28T01:55:44.832Z,77.12
2023-04-28T01:56:44.865Z,77.12
2023-04-28T01:57:44.828Z,77.22
2023-04-28T01:58:44.833Z,77.26
2023-04-28T01:59:44.805Z,77.36
2023-04-28T02:00:44.779Z,77.47
2023-04-28T02:01:44.798Z,77.36
2023-04-28T02:02:44.817Z,76.74
2023-04-28T02:03:44.960Z,77.05
2023-04-28T02:04:44.811Z,76.95
2023-04-28T02:05:44.738Z,76.74
2023-04-28T02:06:44.712Z,76.95
2023-04-28T02:07:44.713Z,76.95
2023-04-28T02:08:44.720Z,76.84
2023-04-28T02:09:44.885Z,76.95
2023-04-28T02:10:44.687Z,76.84
2023-04-28T02:11:44.684Z,77.05
2023-04-28T02:12:44.641Z,76.74
2023-04-28T02:13:44.699Z,76.74
2023-04-28T02:14:44.630Z,76.95
2023-04-28T02:15:44.641Z,76.84
2023-04-28T02:16:44.654Z,76.95
2023-04-28T02:17:44.613Z,77.05
2023-04-28T02:18:44.615Z,77.05
2023-04-28T02:19:44.561Z,77.09
2023-04-28T02:20:44.641Z,77.19
2023-04-28T02:21:44.549Z,77.19
2023-04-28T02:22:44.532Z,77.19
2023-04-28T02:23:44.575Z,77.29
2023-04-28T02:24:44.539Z,77.19
2023-04-28T02:25:44.536Z,76.98
2023-04-28T02:26:44.558Z,77.09
2023-04-28T02:27:44.521Z,77.09
2023-04-28T02:28:44.654Z,77.09
2023-04-28T02:29:44.485Z,76.98
2023-04-28T02:30:44.524Z,77.19
2023-04-28T02:31:44.519Z,77.19
2023-04-28T02:32:44.487Z,77.29
2023-04-28T02:33:44.433Z,77.19
2023-04-28T02:34:44.525Z,77.19
2023-04-28T02:35:44.410Z,77.19
2023-04-28T02:36:44.401Z,77.09
2023-04-28T02:37:44.393Z,77.19
2023-04-28T02:38:44.381Z,77.19
2023-04-28T02:39:44.389Z,76.98
2023-04-28T02:40:44.383Z,76.88
2023-04-28T02:41:44.368Z,76.78
2023-04-28T02:42:44.462Z,76.88
2023-04-28T02:43:44.416Z,76.67
2023-04-28T02:44:44.367Z,76.67
2023-04-28T02:45:44.372Z,76.57
2023-04-28T02:46:44.363Z,76.46
2023-04-28T02:47:44.387Z,76.57
2023-04-28T02:48:44.280Z,76.67
2023-04-28T02:49:44.215Z,76.57
2023-04-28T02:50:44.266Z,76.67
2023-04-28T02:51:44.275Z,76.57
2023-04-28T02:52:44.233Z,76.57
2023-04-28T02:53:44.219Z,76.36
2023-04-28T02:54:44.205Z,76.36
2023-04-28T02:55:44.186Z,76.36
2023-04-28T02:56:44.166Z,76.57
2023-04-28T02:57:44.148Z,76.46
2023-04-28T02:58:44.132Z,76.57
2023-04-28T02:59:44.177Z,76.57
2023-04-28T03:00:44.161Z,76.57
2023-04-28T03:01:44.227Z,76.46
2023-04-28T03:02:44.258Z,76.36
2023-04-28T03:03:44.152Z,76.36
2023-04-28T03:04:44.144Z,76.36
2023-04-28T03:05:44.016Z,76.26
2023-04-28T03:06:44.086Z,76.15
2023-04-28T03:07:44.047Z,76.15
2023-04-28T03:08:43.993Z,75.95
2023-04-28T03:09:43.996Z,76.05
2023-04-28T03:10:43.995Z,76.05
2023-04-28T03:11:43.981Z,75.95
2023-04-28T03:12:43.965Z,75.95
2023-04-28T03:13:43.998Z,76.15
2023-04-28T03:14:43.932Z,76.05
2023-04-28T03:15:43.938Z,75.84
2023-04-28T03:16:44.007Z,75.95
2023-04-28T03:17:44.028Z,75.84
2023-04-28T03:18:43.886Z,75.84
2023-04-28T03:19:43.906Z,75.95
2023-04-28T03:20:43.884Z,75.95
2023-04-28T03:21:43.886Z,75.95
2023-04-28T03:22:43.849Z,75.63
2023-04-28T03:23:43.883Z,75.74
2023-04-28T03:24:43.858Z,75.74
2023-04-28T03:25:43.813Z,75.63
2023-04-28T03:26:43.833Z,75.74
2023-04-28T03:27:43.796Z,75.95
2023-04-28T03:28:43.832Z,75.63
2023-04-28T03:29:43.804Z,75.63
2023-04-28T03:30:43.800Z,75.53
2023-04-28T03:31:43.790Z,75.43
2023-04-28T03:32:43.802Z,75.43
2023-04-28T03:33:43.775Z,75.53
2023-04-28T03:34:43.732Z,75.43
2023-04-28T03:35:43.713Z,75.29
2023-04-28T03:36:43.732Z,75.19
2023-04-28T03:37:43.707Z,75.22
2023-04-28T03:38:43.721Z,75.50
2023-04-28T03:39:43.700Z,75.50
2023-04-28T03:40:43.693Z,75.29
2023-04-28T03:41:43.691Z,75.40
2023-04-28T03:42:43.637Z,75.19
2023-04-28T03:43:43.626Z,74.98
2023-04-28T03:44:43.631Z,75.09
2023-04-28T03:45:43.685Z,74.74
2023-04-28T03:46:43.590Z,74.63
2023-04-28T03:47:43.624Z,74.63
2023-04-28T03:48:43.576Z,74.53
2023-04-28T03:49:43.602Z,74.63
2023-04-28T03:50:43.609Z,74.53
2023-04-28T03:51:43.568Z,74.63
2023-04-28T03:52:43.581Z,74.63
2023-04-28T03:53:43.524Z,74.63
2023-04-28T03:54:43.509Z,74.63
2023-04-28T03:55:43.605Z,74.53
2023-04-28T03:56:43.514Z,74.22
2023-04-28T03:57:43.500Z,74.43
2023-04-28T03:58:43.503Z,74.43
2023-04-28T03:59:43.461Z,73.98
2023-04-28T04:00:43.473Z,73.77
2023-04-28T04:01:43.476Z,73.36
2023-04-28T04:02:43.574Z,73.47
2023-04-28T04:03:43.597Z,72.74
2023-04-28T04:04:43.540Z,72.71
2023-04-28T04:05:43.464Z,72.30
2023-04-28T04:06:43.385Z,72.09
2023-04-28T04:07:43.373Z,72.09
2023-04-28T04:08:43.387Z,72.19
2023-04-28T04:09:43.371Z,72.19
2023-04-28T04:10:43.355Z,71.95
2023-04-28T04:11:43.335Z,71.95
2023-04-28T04:12:43.393Z,71.64
2023-04-28T04:13:43.346Z,71.20
2023-04-28T04:14:43.293Z,70.99
2023-04-28T04:15:43.349Z,70.68
2023-04-28T04:16:43.282Z,70.68
2023-04-28T04:17:43.314Z,70.47
2023-04-28T04:18:43.282Z,70.68
2023-04-28T04:19:43.256Z,70.54
2023-04-28T04:20:43.280Z,69.82
2023-04-28T04:21:43.256Z,69.41
2023-04-28T04:22:43.255Z,69.72
2023-04-28T04:23:43.253Z,69.31
2023-04-28T04:24:43.231Z,68.59
2023-04-28T04:25:43.220Z,68.69
2023-04-28T04:26:43.227Z,68.90
2023-04-28T04:27:43.347Z,69.00
2023-04-28T04:28:43.248Z,69.31
2023-04-28T04:29:43.219Z,69.31
2023-04-28T04:30:43.140Z,69.00
2023-04-28T04:31:43.259Z,68.79
2023-04-28T04:32:43.211Z,68.48
2023-04-28T04:33:43.161Z,68.35
2023-04-28T04:34:43.113Z,68.27
2023-04-28T04:35:43.086Z,68.48
2023-04-28T04:36:43.085Z,68.82
2023-04-28T04:37:43.102Z,69.24
2023-04-28T04:38:43.074Z,69.34
2023-04-28T04:39:43.089Z,69.24
2023-04-28T04:40:43.061Z,69.03
2023-04-28T04:41:43.021Z,68.93
2023-04-28T04:42:43.013Z,69.13
2023-04-28T04:43:43.087Z,69.24
2023-04-28T04:44:43.016Z,69.34
2023-04-28T04:45:43.030Z,69.44
2023-04-28T04:46:43.069Z,69.34
2023-04-28T04:47:43.009Z,68.69
2023-04-28T04:48:42.986Z,67.73
2023-04-28T04:49:42.951Z,66.74
2023-04-28T04:50:43.019Z,65.68
2023-04-28T04:51:42.932Z,65.26
2023-04-28T04:52:42.904Z,64.96
2023-04-28T04:53:42.920Z,64.86
2023-04-28T04:54:42.928Z,65.06
2023-04-28T04:55:42.906Z,65.16
2023-04-28T04:56:42.890Z,64.72
2023-04-28T04:57:42.900Z,64.00
2023-04-28T04:58:42.856Z,63.87
2023-04-28T04:59:42.852Z,63.12
2023-04-28T05:00:42.848Z,62.27
2023-04-28T05:01:42.847Z,61.62
2023-04-28T05:02:42.890Z,60.82
2023-04-28T05:03:43.119Z,58.17
2023-04-28T05:04:42.832Z,57.12
2023-04-28T05:05:44.382Z,56.51
2023-04-28T05:06:42.772Z,56.64
2023-04-28T05:07:42.799Z,57.46
2023-04-28T05:08:42.783Z,57.89
2023-04-28T05:09:42.776Z,57.02
2023-04-28T05:10:42.747Z,56.46
2023-04-28T05:11:42.737Z,54.80
2023-04-28T05:12:42.722Z,54.67
2023-04-28T05:13:42.718Z,53.72
2023-04-28T05:14:42.843Z,52.67
2023-04-28T05:15:42.703Z,52.67
2023-04-28T05:16:42.881Z,53.67
2023-04-28T05:17:42.696Z,54.67
2023-04-28T05:18:42.671Z,53.54
2023-04-28T05:19:42.642Z,53.42
2023-04-28T05:20:42.638Z,53.54
2023-04-28T05:21:42.710Z,54.18
2023-04-28T05:22:42.625Z,54.57
2023-04-28T05:23:42.625Z,54.28
2023-04-28T05:24:42.950Z,54.80
2023-04-28T05:25:42.567Z,54.39
2023-04-28T05:26:42.638Z,54.28
2023-04-28T05:27:42.581Z,54.08
2023-04-28T05:28:42.592Z,54.61
2023-04-28T05:29:42.514Z,55.15
2023-04-28T05:30:42.523Z,55.15
2023-04-28T05:31:42.572Z,55.46
2023-04-28T05:32:42.600Z,54.61
2023-04-28T05:33:43.463Z,54.92
2023-04-28T05:34:42.528Z,54.57
2023-04-28T05:35:42.493Z,53.62
2023-04-28T05:36:42.464Z,53.64
2023-04-28T05:37:42.600Z,53.64
2023-04-28T05:38:42.495Z,53.31
2023-04-28T05:39:42.414Z,52.98
2023-04-28T05:40:42.706Z,52.01
2023-04-28T05:41:42.428Z,50.44
2023-04-28T05:42:42.404Z,50.03
2023-04-28T05:43:42.399Z,50.13
2023-04-28T05:44:43.168Z,50.54
2023-04-28T05:45:42.375Z,50.11
2023-04-28T05:46:42.394Z,50.01
2023-04-28T05:47:42.549Z,49.37
2023-04-28T05:48:42.350Z,50.11
2023-04-28T05:49:42.307Z,50.09
2023-04-28T05:50:42.304Z,48.51
2023-04-28T05:51:42.367Z,48.23
2023-04-28T05:52:42.269Z,50.11
2023-04-28T05:53:42.316Z,50.23
2023-04-28T05:54:42.267Z,49.68
2023-04-28T05:55:42.355Z,48.89
2023-04-28T05:56:42.254Z,49.78
2023-04-28T05:57:52.236Z,48.66
2023-04-28T05:58:43.205Z,49.07
2023-04-28T05:59:42.200Z,48.84
2023-04-28T06:00:42.190Z,48.66
2023-04-28T06:01:42.286Z,48.33
2023-04-28T06:02:42.308Z,48.79
2023-04-28T06:03:42.364Z,49.04
2023-04-28T06:04:42.414Z,48.13
2023-04-28T06:05:42.394Z,48.21
2023-04-28T06:06:42.162Z,47.55
2023-04-28T06:07:42.122Z,47.13
2023-04-28T06:08:42.163Z,46.86
2023-04-28T06:09:42.108Z,47.70
2023-04-28T06:10:42.203Z,47.92
2023-04-28T06:11:42.130Z,48.21
2023-04-28T06:12:42.098Z,48.64
2023-04-28T06:13:42.095Z,48.33
2023-04-28T06:14:42.049Z,48.80
2023-04-28T06:15:42.056Z,47.35
2023-04-28T06:16:42.011Z,47.45
2023-04-28T06:17:42.072Z,47.33
2023-04-28T06:18:42.036Z,47.06
2023-04-28T06:19:42.011Z,48.56
2023-04-28T06:20:42.039Z,49.58
2023-04-28T06:21:41.979Z,49.58
2023-04-28T06:22:41.960Z,49.78
2023-04-28T06:23:41.992Z,49.68
2023-04-28T06:24:41.955Z,49.88
2023-04-28T06:25:41.954Z,49.27
2023-04-28T06:26:41.932Z,49.73
2023-04-28T06:27:41.916Z,48.74
2023-04-28T06:28:41.920Z,49.02
2023-04-28T06:29:41.923Z,48.61
2023-04-28T06:30:41.867Z,48.49
2023-04-28T06:31:41.932Z,48.39
2023-04-28T06:32:41.992Z,48.41
2023-04-28T06:33:41.833Z,48.94
2023-04-28T06:34:41.815Z,48.87
2023-04-28T06:35:41.833Z,47.80
2023-04-28T06:36:41.816Z,49.04
2023-04-28T06:37:41.806Z,49.25
2023-04-28T06:38:41.789Z,49.48
2023-04-28T06:39:41.826Z,49.65
2023-04-28T06:40:41.751Z,49.61
2023-04-28T06:41:41.767Z,47.74
2023-04-28T06:42:41.755Z,47.45
2023-04-28T06:43:41.754Z,47.55
2023-04-28T06:44:41.757Z,48.21
2023-04-28T06:45:41.716Z,48.61
2023-04-28T06:46:41.709Z,49.27
2023-04-28T06:47:41.700Z,49.55
2023-04-28T06:48:41.680Z,49.04
2023-04-28T06:49:41.679Z,48.94
2023-04-28T06:50:43.602Z,48.92
2023-04-28T06:51:41.659Z,48.19
2023-04-28T06:52:41.647Z,48.33
2023-04-28T06:53:41.633Z,48.86
2023-04-28T06:54:41.829Z,49.50
2023-04-28T06:55:41.646Z,50.21
2023-04-28T06:56:41.695Z,50.21
2023-04-28T06:57:41.603Z,50.64
2023-04-28T06:58:41.558Z,51.40
2023-04-28T06:59:41.596Z,52.42
2023-04-28T07:00:41.586Z,52.22
2023-04-28T07:01:41.828Z,52.22
2023-04-28T07:02:41.666Z,52.42
2023-04-28T07:03:41.753Z,52.22
2023-04-28T07:04:41.527Z,52.14
2023-04-28T07:05:41.572Z,52.47
2023-04-28T07:06:41.474Z,52.27
2023-04-28T07:07:41.574Z,52.58
2023-04-28T07:08:41.479Z,52.50
2023-04-28T07:09:41.471Z,52.91
2023-04-28T07:10:41.486Z,51.91
2023-04-28T07:11:41.440Z,52.32
2023-04-28T07:12:41.593Z,52.62
2023-04-28T07:13:41.421Z,52.52
2023-04-28T07:14:41.488Z,52.39
2023-04-28T07:15:41.430Z,52.19
2023-04-28T07:16:41.434Z,51.68
2023-04-28T07:17:41.404Z,51.76
2023-04-28T07:18:41.385Z,51.55
2023-04-28T07:19:41.364Z,51.02
2023-04-28T07:20:41.560Z,50.84
2023-04-28T07:21:41.415Z,50.74
2023-04-28T07:22:41.391Z,51.15
2023-04-28T07:23:41.354Z,50.20
2023-04-28T07:24:41.362Z,50.20
2023-04-28T07:25:41.307Z,50.00
2023-04-28T07:26:41.275Z,49.67
2023-04-28T07:27:41.275Z,49.16
2023-04-28T07:28:41.321Z,49.18
2023-04-28T07:29:41.274Z,49.38
2023-04-28T07:30:41.283Z,49.59
2023-04-28T07:31:41.264Z,49.38
2023-04-28T07:32:41.320Z,49.49
2023-04-28T07:33:41.222Z,49.38
2023-04-28T07:34:41.201Z,49.29
2023-04-28T07:35:41.191Z,49.16
2023-04-28T07:36:41.607Z,49.26
2023-04-28T07:37:41.207Z,49.16
2023-04-28T07:38:41.175Z,49.04
2023-04-28T07:39:41.468Z,49.04
2023-04-28T07:40:41.161Z,48.93
2023-04-28T07:41:41.226Z,48.52
2023-04-28T07:42:41.115Z,48.73
2023-04-28T07:43:41.127Z,49.46
2023-04-28T07:44:41.124Z,49.46
2023-04-28T07:45:41.200Z,49.54
2023-04-28T07:46:41.106Z,49.44
2023-04-28T07:47:41.135Z,49.37
2023-04-28T07:48:41.040Z,49.67
2023-04-28T07:49:41.034Z,49.26
2023-04-28T07:50:41.072Z,49.57
2023-04-28T07:51:41.078Z,49.59
2023-04-28T07:52:41.043Z,49.77
2023-04-28T07:53:41.035Z,49.57
2023-04-28T07:54:41.039Z,49.67
2023-04-28T07:55:41.062Z,49.37
2023-04-28T07:56:40.990Z,49.57
2023-04-28T07:57:40.981Z,49.57
2023-04-28T07:58:40.945Z,49.37
2023-04-28T07:59:41.007Z,49.46
2023-04-28T08:00:41.167Z,49.67
2023-04-28T08:01:40.919Z,49.57
2023-04-28T08:02:41.097Z,49.67
2023-04-28T08:03:41.151Z,49.87
2023-04-28T08:04:41.753Z,49.87
2023-04-28T08:05:40.952Z,49.87
2023-04-28T08:06:40.883Z,49.75
2023-04-28T08:07:40.862Z,49.37
2023-04-28T08:08:40.890Z,49.77
2023-04-28T08:09:41.729Z,49.85
2023-04-28T08:10:40.875Z,49.65
2023-04-28T08:11:40.860Z,49.85
2023-04-28T08:12:40.833Z,49.65
2023-04-28T08:13:40.861Z,49.62
2023-04-28T08:14:40.920Z,49.32
2023-04-28T08:15:40.809Z,49.42
2023-04-28T08:16:40.745Z,49.32
2023-04-28T08:17:40.816Z,49.21
2023-04-28T08:18:40.772Z,49.09
2023-04-28T08:19:40.736Z,48.48
2023-04-28T08:20:40.759Z,48.58
2023-04-28T08:21:40.728Z,48.38
2023-04-28T08:22:40.754Z,48.48
2023-04-28T08:23:40.683Z,48.18
2023-04-28T08:24:40.731Z,48.27
2023-04-28T08:25:40.666Z,47.66
2023-04-28T08:26:40.661Z,47.85
2023-04-28T08:27:40.665Z,47.92
2023-04-28T08:28:40.655Z,47.42
2023-04-28T08:29:40.631Z,47.60
2023-04-28T08:30:40.707Z,46.89
2023-04-28T08:31:40.668Z,46.78
2023-04-28T08:32:40.664Z,46.78
2023-04-28T08:33:40.697Z,46.68
2023-04-28T08:34:40.571Z,47.01
2023-04-28T08:35:40.545Z,47.19
2023-04-28T08:36:40.541Z,47.09
2023-04-28T08:37:40.546Z,46.45
2023-04-28T08:38:40.507Z,46.36
2023-04-28T08:39:40.586Z,46.45
2023-04-28T08:40:40.555Z,46.78
2023-04-28T08:41:40.511Z,46.58
2023-04-28T08:42:40.518Z,46.48
2023-04-28T08:43:40.492Z,46.58
2023-04-28T08:44:40.480Z,46.25
2023-04-28T08:45:40.461Z,46.17
2023-04-28T08:46:40.456Z,46.17
2023-04-28T08:47:40.558Z,45.97
2023-04-28T08:48:40.453Z,46.25
2023-04-28T08:49:40.517Z,46.25
2023-04-28T08:50:40.389Z,45.54
2023-04-28T08:51:42.198Z,45.95
2023-04-28T08:52:40.373Z,45.95
2023-04-28T08:54:06.172Z,46.05
2023-04-28T08:54:41.444Z,46.03
2023-04-28T08:55:40.353Z,45.21
2023-04-28T08:56:40.390Z,45.29
2023-04-28T08:57:41.407Z,45.37
2023-04-28T08:58:40.320Z,44.46
2023-04-28T08:59:40.323Z,44.16
2023-04-28T09:00:40.535Z,43.96
2023-04-28T09:01:40.338Z,44.18
2023-04-28T09:02:40.380Z,44.59
2023-04-28T09:03:40.362Z,44.68
2023-04-28T09:04:40.587Z,44.99
2023-04-28T09:05:40.385Z,45.09
2023-04-28T09:06:40.284Z,45.17
2023-04-28T09:07:40.207Z,44.87
2023-04-28T09:08:40.502Z,44.85
2023-04-28T09:09:40.222Z,44.32
2023-04-28T09:10:40.211Z,43.91
2023-04-28T09:11:40.183Z,44.04
2023-04-28T09:12:40.140Z,44.67
2023-04-28T09:13:40.233Z,44.77
2023-04-28T09:14:40.173Z,44.36
2023-04-28T09:15:40.213Z,44.56
2023-04-28T09:16:40.335Z,44.87
2023-04-28T09:17:40.177Z,45.17
2023-04-28T09:18:40.076Z,45.05
2023-04-28T09:19:40.122Z,44.12
2023-04-28T09:20:43.873Z,44.01
2023-04-28T09:21:40.109Z,44.10
2023-04-28T09:22:40.189Z,44.10
2023-04-28T09:23:40.061Z,43.98
2023-04-28T09:24:40.084Z,43.71
2023-04-28T09:25:40.054Z,44.01
2023-04-28T09:26:40.099Z,43.99
2023-04-28T09:27:40.061Z,43.98
2023-04-28T09:28:40.023Z,45.19
2023-04-28T09:29:39.983Z,44.66
2023-04-28T09:30:39.999Z,44.66
2023-04-28T09:31:40.073Z,43.83
2023-04-28T09:32:40.058Z,43.63
2023-04-28T09:33:40.059Z,43.32
2023-04-28T09:34:39.945Z,43.04
2023-04-28T09:35:39.973Z,43.47
2023-04-28T09:36:39.920Z,43.89
2023-04-28T09:37:39.906Z,44.22
2023-04-28T09:38:40.027Z,44.85
2023-04-28T09:39:39.963Z,45.05
2023-04-28T09:40:39.866Z,45.05
2023-04-28T09:41:39.874Z,45.15
2023-04-28T09:42:39.861Z,45.13
2023-04-28T09:43:39.827Z,44.30
2023-04-28T09:44:39.851Z,43.57
2023-04-28T09:45:39.855Z,43.77
2023-04-28T09:46:40.102Z,43.95
2023-04-28T09:47:39.787Z,43.73
2023-04-28T09:48:39.826Z,43.83
2023-04-28T09:49:39.759Z,43.00
2023-04-28T09:50:39.879Z,42.88
2023-04-28T09:51:39.839Z,42.90
2023-04-28T09:52:39.766Z,42.88
2023-04-28T09:53:39.792Z,42.90
2023-04-28T09:54:39.807Z,43.02
2023-04-28T09:55:39.697Z,43.55
2023-04-28T09:56:39.713Z,44.27
2023-04-28T09:57:39.738Z,44.27
2023-04-28T09:58:39.851Z,44.40
2023-04-28T09:59:39.664Z,44.60
2023-04-28T10:00:39.893Z,44.48
2023-04-28T10:01:39.725Z,44.68
2023-04-28T10:02:43.712Z,45.01
2023-04-28T10:03:39.799Z,45.01
2023-04-28T10:04:39.997Z,44.99
2023-04-28T10:05:39.802Z,45.01
2023-04-28T10:06:40.302Z,45.19
2023-04-28T10:07:39.715Z,44.76
2023-04-28T10:08:39.581Z,44.56
2023-04-28T10:09:39.705Z,44.03
2023-04-28T10:10:39.572Z,43.91
2023-04-28T10:11:39.540Z,43.59
2023-04-28T10:12:39.545Z,43.57
2023-04-28T10:13:39.544Z,43.04
2023-04-28T10:14:39.534Z,42.43
2023-04-28T10:15:39.550Z,42.74
2023-04-28T10:16:39.484Z,42.84
2023-04-28T10:17:39.526Z,42.61
2023-04-28T10:18:39.487Z,41.93
2023-04-28T10:19:39.448Z,42.96
2023-04-28T10:20:39.470Z,42.98
2023-04-28T10:21:39.427Z,43.41
2023-04-28T10:22:39.436Z,43.52
2023-04-28T10:23:39.435Z,43.61
2023-04-28T10:24:39.395Z,43.71
2023-04-28T10:25:39.420Z,43.51
2023-04-28T10:26:39.386Z,43.51
2023-04-28T10:27:39.508Z,43.93
2023-04-28T10:28:39.466Z,44.44
2023-04-28T10:29:39.458Z,44.64
2023-04-28T10:30:39.390Z,44.42
2023-04-28T10:31:39.483Z,44.40
2023-04-28T10:32:39.362Z,44.07
2023-04-28T10:33:39.369Z,43.37
2023-04-28T10:34:39.336Z,42.94
2023-04-28T10:35:39.296Z,42.96
2023-04-28T10:36:39.381Z,43.91
2023-04-28T10:37:39.264Z,44.09
2023-04-28T10:38:39.242Z,43.57
2023-04-28T10:39:39.266Z,43.67
2023-04-28T10:40:39.320Z,43.14
2023-04-28T10:41:39.283Z,42.94
2023-04-28T10:42:39.274Z,42.92
2023-04-28T10:43:39.240Z,42.54
2023-04-28T10:44:39.312Z,43.67
2023-04-28T10:45:39.191Z,43.75
2023-04-28T10:46:39.231Z,42.94
2023-04-28T10:47:39.230Z,42.72
2023-04-28T10:48:39.178Z,42.54
2023-04-28T10:49:39.164Z,42.94
2023-04-28T10:50:39.466Z,43.37
2023-04-28T10:51:39.131Z,43.44
2023-04-28T10:52:39.140Z,42.82
2023-04-28T10:53:39.125Z,42.72
2023-04-28T10:54:39.127Z,42.54
2023-04-28T10:55:39.071Z,43.16
2023-04-28T10:56:41.321Z,43.46
2023-04-28T10:57:39.071Z,43.65
2023-04-28T10:58:39.060Z,43.32
2023-04-28T10:59:39.047Z,42.41
2023-04-28T11:00:39.055Z,42.09
2023-04-28T11:01:39.089Z,42.61
2023-04-28T11:02:41.092Z,42.52
2023-04-28T11:03:39.147Z,42.72
2023-04-28T11:04:39.195Z,42.60
2023-04-28T11:05:39.018Z,41.99
2023-04-28T11:06:38.986Z,42.27
2023-04-28T11:07:38.968Z,41.67
2023-04-28T11:08:38.952Z,41.25
2023-04-28T11:09:38.947Z,41.35
2023-04-28T11:10:38.935Z,41.93
2023-04-28T11:11:38.962Z,41.31
2023-04-28T11:12:38.943Z,40.89
2023-04-28T11:13:40.060Z,40.40
2023-04-28T11:14:38.918Z,40.60
2023-04-28T11:15:38.891Z,40.62
2023-04-28T11:16:38.936Z,41.56
2023-04-28T11:17:38.882Z,42.01
2023-04-28T11:18:38.837Z,42.94
2023-04-28T11:19:38.843Z,42.94
2023-04-28T11:20:38.842Z,43.14
2023-04-28T11:21:38.801Z,43.32
2023-04-28T11:22:38.783Z,42.68
2023-04-28T11:23:38.800Z,41.97
2023-04-28T11:24:38.822Z,42.29
2023-04-28T11:25:38.797Z,43.14
2023-04-28T11:26:38.794Z,43.26
2023-04-28T11:27:38.743Z,43.77
2023-04-28T11:28:38.718Z,43.95
2023-04-28T11:29:38.740Z,43.30
2023-04-28T11:30:39.223Z,42.90
2023-04-28T11:31:38.778Z,42.78
2023-04-28T11:32:38.787Z,42.05
2023-04-28T11:33:38.739Z,42.07
2023-04-28T11:34:38.705Z,42.29
2023-04-28T11:35:38.685Z,42.78
2023-04-28T11:36:38.825Z,42.05
2023-04-28T11:37:38.621Z,41.75
2023-04-28T11:38:38.661Z,42.07
2023-04-28T11:39:38.661Z,42.41
2023-04-28T11:40:38.715Z,43.04
2023-04-28T11:41:38.670Z,43.24
2023-04-28T11:42:38.612Z,43.63
2023-04-28T11:43:47.075Z,43.30
2023-04-28T11:44:39.600Z,43.23
2023-04-28T11:45:38.588Z,43.43
2023-04-28T11:46:38.566Z,43.63
2023-04-28T11:47:38.613Z,43.51
2023-04-28T11:48:38.511Z,42.60
2023-04-28T11:49:39.061Z,42.88
2023-04-28T11:50:38.558Z,41.87
2023-04-28T11:51:38.484Z,41.97
2023-04-28T11:52:38.509Z,42.19
2023-04-28T11:53:38.502Z,42.52
2023-04-28T11:54:38.480Z,42.40
2023-04-28T11:55:38.815Z,42.70
2023-04-28T11:56:38.464Z,42.60
2023-04-28T11:57:38.523Z,42.47
2023-04-28T11:58:38.448Z,42.27
2023-04-28T11:59:39.883Z,42.35
2023-04-28T12:00:38.429Z,42.33
2023-04-28T12:01:38.406Z,41.73
2023-04-28T12:02:38.557Z,41.83
2023-04-28T12:03:38.681Z,41.73
2023-04-28T12:04:38.436Z,42.13
2023-04-28T12:05:39.035Z,41.73
2023-04-28T12:06:38.331Z,41.63
2023-04-28T12:07:38.358Z,42.03
2023-04-28T12:08:38.325Z,42.33
2023-04-28T12:09:38.332Z,42.21
2023-04-28T12:10:38.328Z,41.71
2023-04-28T12:11:38.301Z,41.51
2023-04-28T12:13:38.320Z,41.49
2023-04-28T12:14:38.243Z,41.29
2023-04-28T12:15:38.258Z,41.19
2023-04-28T12:16:38.308Z,40.69
2023-04-28T12:17:38.249Z,41.19
2023-04-28T12:18:38.213Z,40.77
2023-04-28T12:19:38.195Z,40.66
2023-04-28T12:20:38.410Z,41.20
2023-04-28T12:21:38.639Z,41.63
2023-04-28T12:22:38.197Z,42.05
2023-04-28T12:23:38.177Z,42.03
2023-04-28T12:24:38.146Z,42.03
2023-04-28T12:25:38.128Z,41.91
2023-04-28T12:26:38.153Z,41.61
2023-04-28T12:27:38.936Z,42.10
2023-04-28T12:28:38.112Z,41.79
2023-04-28T12:29:38.106Z,41.67
2023-04-28T12:30:38.090Z,41.27
2023-04-28T12:31:38.074Z,41.05
2023-04-28T12:32:38.154Z,40.89
2023-04-28T12:33:38.675Z,40.97
2023-04-28T12:34:38.067Z,41.27
2023-04-28T12:35:38.079Z,41.49
2023-04-28T12:36:38.023Z,41.59
2023-04-28T12:37:38.062Z,41.06
2023-04-28T12:38:38.016Z,41.69
2023-04-28T12:39:39.686Z,41.71
2023-04-28T12:40:37.993Z,42.30
2023-04-28T12:41:38.015Z,42.50
2023-04-28T12:42:37.974Z,42.38
2023-04-28T12:43:37.990Z,41.77
2023-04-28T12:44:38.022Z,41.57
2023-04-28T12:45:38.963Z,41.79
2023-04-28T12:46:38.051Z,41.93
2023-04-28T12:47:37.960Z,42.76
2023-04-28T12:48:37.905Z,43.06
2023-04-28T12:49:37.903Z,42.96
2023-04-28T12:50:37.906Z,43.14
2023-04-28T12:51:39.031Z,42.84
2023-04-28T12:52:37.906Z,42.64
2023-04-28T12:53:37.869Z,42.84